Time;durP1;ratioP1;P1;durP2;ratioP2;P2;SDS_P1;SDS_P2;PMS_P1;PMS_P2;Temp;Humidity;BMP_temperature;BMP_pressure;BME280_temperature;BME280_humidity;BME280_pressure;Samples;Min_cycle;Max_cycle;Signal;HPM_P1;HPM_P2
2023/12/30 00:01:04;;;;;;;106.80;79.15;;;9.80;99.90;;;;;;5947224;24;20502;-69
2023/12/30 00:04:10;;;;;;;111.73;82.87;;;9.70;99.90;;;;;;5918622;24;20013;-69
2023/12/30 00:09:41;;;;;;;112.55;80.95;;;9.80;99.90;;;;;;5953308;23;20068;-70
2023/12/30 00:12:07;;;;;;;110.97;80.60;;;9.80;99.90;;;;;;6122116;23;20131;-69
2023/12/30 00:14:33;;;;;;;107.85;81.57;;;9.70;99.90;;;;;;6257249;22;20307;-70
2023/12/30 00:16:58;;;;;;;112.70;83.03;;;9.70;99.90;;;;;;6277129;22;20133;-70
2023/12/30 00:19:24;;;;;;;110.67;82.20;;;9.80;99.90;;;;;;6276904;22;19999;-70
2023/12/30 00:21:50;;;;;;;107.67;79.80;;;9.70;99.90;;;;;;6277249;22;20008;-70
2023/12/30 00:24:16;;;;;;;114.00;83.63;;;9.70;99.90;;;;;;6277121;22;20420;-70
2023/12/30 00:26:42;;;;;;;114.23;82.93;;;9.80;99.90;;;;;;6276508;22;20448;-70
2023/12/30 00:29:08;;;;;;;110.70;79.15;;;9.80;99.90;;;;;;6276646;22;20000;-69
2023/12/30 00:31:33;;;;;;;110.00;80.83;;;9.80;99.90;;;;;;6276521;22;20011;-71
2023/12/30 00:34:01;;;;;;;112.63;81.70;;;9.80;99.90;;;;;;6276652;22;20012;-69
2023/12/30 00:36:27;;;;;;;108.50;81.93;;;9.80;99.90;;;;;;6277356;22;20082;-69
2023/12/30 00:38:54;;;;;;;115.60;84.10;;;9.80;99.90;;;;;;6277359;22;20000;-70
2023/12/30 00:41:23;;;;;;;118.30;85.07;;;9.80;99.90;;;;;;6276994;22;20010;-70
2023/12/30 00:43:49;;;;;;;106.65;80.55;;;9.80;99.90;;;;;;6276487;22;20007;-70
2023/12/30 00:46:17;;;;;;;107.23;78.90;;;9.80;99.90;;;;;;6277413;22;20007;-75
2023/12/30 00:48:42;;;;;;;107.35;78.22;;;9.80;99.90;;;;;;6277059;22;20422;-76
2023/12/30 00:51:08;;;;;;;103.57;78.93;;;9.80;99.90;;;;;;6276978;22;20018;-76
2023/12/30 00:53:34;;;;;;;109.13;80.93;;;9.80;99.90;;;;;;6276840;22;19996;-76
2023/12/30 00:55:59;;;;;;;107.87;79.53;;;9.80;99.90;;;;;;6276737;22;20057;-76
2023/12/30 00:58:25;;;;;;;106.37;78.13;;;9.80;99.90;;;;;;6276861;22;20004;-74
2023/12/30 01:00:51;;;;;;;104.67;77.10;;;9.80;99.90;;;;;;6276584;22;20007;-76
2023/12/30 01:03:17;;;;;;;105.65;77.25;;;9.80;99.90;;;;;;6276763;22;19996;-76
2023/12/30 01:05:44;;;;;;;104.57;77.60;;;9.80;99.90;;;;;;6277331;22;20026;-69
2023/12/30 01:08:10;;;;;;;104.67;77.07;;;9.80;99.90;;;;;;6277539;22;20008;-70
2023/12/30 01:10:36;;;;;;;95.10;72.68;;;9.80;99.90;;;;;;6277092;22;20008;-69
2023/12/30 01:13:05;;;;;;;99.40;73.83;;;9.80;99.90;;;;;;6276514;22;20038;-69
2023/12/30 01:16:22;;;;;;;101.47;75.83;;;9.80;99.90;;;;;;6276766;22;20007;-70
2023/12/30 01:36:25;;;;;;;91.80;64.72;;;9.80;99.90;;;;;;6093208;23;20062;-70
2023/12/30 01:42:33;;;;;;;89.63;64.43;;;9.80;99.90;;;;;;5967573;24;20348;-69
2023/12/30 01:44:59;;;;;;;86.18;63.10;;;9.80;99.90;;;;;;6087228;23;20341;-70
2023/12/30 01:47:26;;;;;;;86.13;63.90;;;9.80;99.90;;;;;;6143350;23;20308;-69
2023/12/30 01:49:51;;;;;;;88.97;66.03;;;9.80;99.90;;;;;;6263833;22;20011;-70
2023/12/30 01:52:18;;;;;;;88.90;66.03;;;9.80;99.90;;;;;;6276664;22;20014;-69
2023/12/30 01:54:44;;;;;;;94.63;65.93;;;9.80;99.90;;;;;;6276013;22;20394;-69
2023/12/30 01:57:10;;;;;;;91.20;65.57;;;9.80;99.90;;;;;;6276293;22;20069;-70
2023/12/30 01:59:37;;;;;;;92.03;65.17;;;9.80;99.90;;;;;;6272554;22;20419;-71
2023/12/30 02:02:03;;;;;;;88.88;66.63;;;9.80;99.90;;;;;;6272835;22;20346;-69
2023/12/30 02:04:29;;;;;;;91.32;68.53;;;9.80;99.90;;;;;;6273842;22;19995;-70
2023/12/30 02:06:55;;;;;;;103.10;68.60;;;9.80;99.90;;;;;;6275043;22;20523;-71
2023/12/30 02:09:21;;;;;;;92.60;67.80;;;9.80;99.90;;;;;;6275471;22;19996;-70
2023/12/30 02:11:48;;;;;;;95.97;70.00;;;9.80;99.90;;;;;;6275822;22;20008;-69
2023/12/30 02:14:27;;;;;;;98.80;71.00;;;9.80;99.90;;;;;;6275755;22;20426;-70
2023/12/30 02:16:54;;;;;;;97.37;71.57;;;9.80;99.90;;;;;;6276067;22;20000;-70
2023/12/30 02:19:20;;;;;;;99.55;72.82;;;9.80;99.90;;;;;;6275814;22;20006;-69
2023/12/30 02:21:45;;;;;;;101.60;73.07;;;9.80;99.90;;;;;;6275873;22;19999;-69
2023/12/30 02:24:11;;;;;;;96.83;74.50;;;9.80;99.90;;;;;;6276217;22;20031;-71
2023/12/30 02:26:39;;;;;;;97.73;73.80;;;9.80;99.90;;;;;;6275797;22;20030;-69
2023/12/30 02:29:04;;;;;;;101.23;74.47;;;9.80;99.90;;;;;;6275345;22;20008;-69
2023/12/30 02:31:30;;;;;;;98.30;73.20;;;9.80;99.90;;;;;;6275497;22;20046;-70
2023/12/30 02:33:56;;;;;;;103.13;76.50;;;9.80;99.90;;;;;;6275794;22;19999;-68
2023/12/30 02:36:22;;;;;;;100.80;75.30;;;9.80;99.90;;;;;;6275441;22;20062;-69
2023/12/30 02:38:48;;;;;;;107.65;75.38;;;9.70;99.90;;;;;;6275395;22;20000;-70
2023/12/30 02:41:14;;;;;;;97.93;73.32;;;9.70;99.90;;;;;;6275769;22;20010;-70
2023/12/30 02:44:00;;;;;;;102.80;74.03;;;9.80;99.90;;;;;;6276211;22;20414;-69
2023/12/30 02:46:26;;;;;;;101.57;72.77;;;9.80;99.90;;;;;;6276713;22;20007;-69
2023/12/30 02:48:52;;;;;;;100.93;75.33;;;9.70;99.90;;;;;;6276650;22;20003;-69
2023/12/30 02:51:24;;;;;;;96.77;72.77;;;9.70;99.90;;;;;;6276021;22;20081;-69
2023/12/30 03:04:51;;;;;;;101.47;72.93;;;9.70;99.90;;;;;;6007162;23;20020;-69
2023/12/30 03:07:59;;;;;;;100.03;73.30;;;9.60;99.90;;;;;;5983972;23;20009;-69
2023/12/30 03:20:14;;;;;;;100.20;73.53;;;9.70;99.90;;;;;;5896561;24;20158;-69
2023/12/30 03:22:40;;;;;;;104.20;75.43;;;9.70;99.90;;;;;;6079004;23;20392;-69
2023/12/30 03:25:06;;;;;;;102.65;74.05;;;9.70;99.90;;;;;;6275615;22;20385;-70
2023/12/30 03:27:32;;;;;;;104.23;75.30;;;9.70;99.90;;;;;;6277702;22;20078;-69
2023/12/30 03:29:58;;;;;;;103.10;74.57;;;9.70;99.90;;;;;;6277338;22;20046;-69
2023/12/30 03:32:24;;;;;;;107.83;76.57;;;9.60;99.90;;;;;;6277674;22;20322;-69
2023/12/30 03:34:50;;;;;;;102.63;73.77;;;9.60;99.90;;;;;;6277853;22;20044;-71
2023/12/30 03:37:16;;;;;;;104.77;75.43;;;9.60;99.90;;;;;;6250328;22;20018;-69
2023/12/30 03:39:42;;;;;;;97.83;73.03;;;9.60;99.90;;;;;;6277212;22;20022;-69
2023/12/30 03:42:07;;;;;;;106.20;74.53;;;9.60;99.90;;;;;;6250482;22;20008;-70
2023/12/30 03:44:33;;;;;;;101.93;76.43;;;9.60;99.90;;;;;;6277126;22;20465;-69
2023/12/30 03:46:59;;;;;;;109.30;74.00;;;9.60;99.90;;;;;;6276919;22;20027;-69
2023/12/30 03:49:25;;;;;;;102.13;74.00;;;9.60;99.90;;;;;;6276940;22;20003;-69
2023/12/30 03:51:51;;;;;;;99.83;73.27;;;9.60;99.90;;;;;;6276957;22;20552;-69
2023/12/30 03:54:17;;;;;;;102.43;73.70;;;9.60;99.90;;;;;;6277313;22;20031;-70
2023/12/30 03:56:43;;;;;;;102.83;74.40;;;9.60;99.90;;;;;;6277242;22;20000;-72
2023/12/30 03:59:08;;;;;;;107.83;73.30;;;9.60;99.90;;;;;;6277097;22;19996;-75
2023/12/30 04:01:34;;;;;;;106.07;73.68;;;9.60;99.90;;;;;;6277419;22;20027;-76
2023/12/30 04:04:00;;;;;;;106.27;74.10;;;9.60;99.90;;;;;;6276922;22;20004;-77
2023/12/30 04:06:26;;;;;;;103.37;73.73;;;9.60;99.90;;;;;;6277282;22;20050;-77
2023/12/30 04:08:51;;;;;;;105.87;73.20;;;9.60;99.90;;;;;;6277102;22;20028;-74
2023/12/30 04:11:17;;;;;;;96.20;71.60;;;9.60;99.90;;;;;;6276630;22;20038;-76
2023/12/30 04:13:43;;;;;;;90.47;66.17;;;9.60;99.90;;;;;;6277140;22;20003;-76
2023/12/30 04:16:09;;;;;;;98.70;72.37;;;9.60;99.90;;;;;;6277180;22;20004;-76
2023/12/30 04:18:35;;;;;;;105.07;70.83;;;9.60;99.90;;;;;;6250657;22;20000;-69
2023/12/30 04:21:00;;;;;;;93.97;68.63;;;9.60;99.90;;;;;;6277772;22;20453;-69
2023/12/30 04:23:26;;;;;;;101.77;70.73;;;9.60;99.90;;;;;;6277609;22;20079;-69
2023/12/30 04:25:52;;;;;;;101.87;72.63;;;9.60;99.90;;;;;;6277755;22;20003;-69
2023/12/30 04:28:18;;;;;;;106.97;73.57;;;9.60;99.90;;;;;;6277754;22;20000;-69
2023/12/30 04:49:11;;;;;;;113.47;75.37;;;9.60;99.90;;;;;;5925544;24;20047;-71
2023/12/30 04:55:26;;;;;;;105.83;71.93;;;9.50;99.90;;;;;;5894034;24;20014;-70
2023/12/30 04:57:52;;;;;;;99.47;72.90;;;9.50;99.90;;;;;;5978211;23;20372;-70
2023/12/30 05:00:18;;;;;;;98.30;70.93;;;9.50;99.90;;;;;;6133822;23;20449;-69
2023/12/30 05:02:44;;;;;;;101.10;74.87;;;9.50;99.90;;;;;;6274953;22;20296;-69
2023/12/30 05:05:09;;;;;;;102.23;69.93;;;9.50;99.90;;;;;;6276745;22;20011;-69
2023/12/30 05:07:35;;;;;;;101.07;70.37;;;9.50;99.90;;;;;;6276609;22;19996;-70
2023/12/30 05:10:01;;;;;;;97.03;69.03;;;9.50;99.90;;;;;;6276703;22;20036;-71
2023/12/30 05:12:27;;;;;;;101.07;69.47;;;9.50;99.90;;;;;;6276535;22;20000;-70
2023/12/30 05:14:53;;;;;;;92.90;68.70;;;9.50;99.90;;;;;;6276358;22;20000;-69
2023/12/30 05:17:18;;;;;;;96.30;67.67;;;9.50;99.90;;;;;;6276615;22;20019;-70
2023/12/30 05:19:44;;;;;;;91.03;66.50;;;9.50;99.90;;;;;;6276151;22;20030;-70
2023/12/30 05:22:10;;;;;;;95.87;69.37;;;9.50;99.90;;;;;;6276096;22;20060;-69
2023/12/30 05:24:36;;;;;;;100.60;69.63;;;9.50;99.90;;;;;;6276406;22;20457;-71
2023/12/30 05:27:02;;;;;;;91.77;67.27;;;9.50;99.90;;;;;;6275937;22;20453;-70
2023/12/30 05:29:28;;;;;;;89.33;66.97;;;9.50;99.90;;;;;;6276570;22;20004;-70
2023/12/30 05:31:54;;;;;;;97.45;66.65;;;9.50;99.90;;;;;;6275558;22;20425;-70
2023/12/30 05:34:19;;;;;;;91.80;66.73;;;9.50;99.90;;;;;;6276128;22;20066;-70
2023/12/30 05:36:45;;;;;;;90.57;66.50;;;9.50;99.90;;;;;;6275679;22;20075;-70
2023/12/30 05:39:13;;;;;;;91.63;64.13;;;9.50;99.90;;;;;;6275764;22;20018;-70
2023/12/30 05:41:39;;;;;;;90.37;63.87;;;9.50;99.90;;;;;;6276103;22;20007;-69
2023/12/30 05:44:05;;;;;;;84.90;60.22;;;9.50;99.90;;;;;;6275926;22;19996;-70
2023/12/30 05:46:31;;;;;;;88.03;58.40;;;9.50;99.90;;;;;;6275656;22;20018;-69
2023/12/30 05:48:57;;;;;;;83.07;57.43;;;9.50;99.90;;;;;;6276169;22;20414;-69
2023/12/30 05:51:23;;;;;;;81.40;56.33;;;9.50;99.90;;;;;;6276272;22;20019;-69
2023/12/30 05:53:49;;;;;;;73.90;52.13;;;9.50;99.90;;;;;;6276095;22;20023;-69
2023/12/30 05:56:24;;;;;;;72.17;50.37;;;9.50;99.90;;;;;;6276232;22;20000;-69
2023/12/30 05:58:53;;;;;;;70.73;47.90;;;9.50;99.90;;;;;;6276868;22;20011;-70
2023/12/30 06:01:19;;;;;;;68.40;47.67;;;9.50;99.90;;;;;;6277005;22;20019;-69
2023/12/30 06:03:45;;;;;;;65.47;48.27;;;9.50;99.90;;;;;;6277078;22;19996;-69
2023/12/30 06:06:15;;;;;;;64.57;46.90;;;9.50;99.90;;;;;;6276764;22;20004;-69
2023/12/30 06:13:16;;;;;;;;;;;;;;;;;;;;;
2023/12/30 06:32:22;;;;;;;65.47;48.37;;;9.40;99.90;;;;;;6007512;23;20020;-69
2023/12/30 06:34:49;;;;;;;70.50;49.37;;;9.40;99.90;;;;;;6012675;23;20042;-69
2023/12/30 06:37:15;;;;;;;70.60;49.10;;;9.40;99.90;;;;;;6211397;22;20010;-70
2023/12/30 06:39:41;;;;;;;68.47;48.90;;;9.40;99.90;;;;;;6275445;22;20307;-69
2023/12/30 06:42:07;;;;;;;72.03;51.43;;;9.40;99.90;;;;;;6275851;22;20004;-70
2023/12/30 06:44:33;;;;;;;66.73;48.53;;;9.40;99.90;;;;;;6275461;22;20007;-69
2023/12/30 06:46:59;;;;;;;71.00;49.40;;;9.40;99.90;;;;;;6275583;22;20004;-70
2023/12/30 06:49:25;;;;;;;70.73;49.53;;;9.40;99.90;;;;;;6275696;22;20000;-70
2023/12/30 06:51:50;;;;;;;73.47;49.70;;;9.40;99.90;;;;;;6275591;22;20065;-70
2023/12/30 06:54:16;;;;;;;72.13;51.20;;;9.40;99.90;;;;;;6248582;22;20053;-69
2023/12/30 06:56:44;;;;;;;68.40;48.70;;;9.30;99.90;;;;;;6275694;22;20004;-69
2023/12/30 06:59:10;;;;;;;70.23;49.13;;;9.40;99.90;;;;;;6277173;22;20430;-70
2023/12/30 07:01:39;;;;;;;70.17;48.47;;;9.40;99.90;;;;;;6278215;22;20003;-69
2023/12/30 07:04:05;;;;;;;65.13;48.10;;;9.40;99.90;;;;;;6277857;22;20015;-70
2023/12/30 07:06:31;;;;;;;73.37;49.97;;;9.30;99.90;;;;;;6277495;22;20008;-70
2023/12/30 07:08:56;;;;;;;67.10;49.43;;;9.40;99.90;;;;;;6277645;22;20007;-70
2023/12/30 07:11:23;;;;;;;73.60;47.73;;;9.30;99.90;;;;;;6277483;22;20015;-70
2023/12/30 07:13:49;;;;;;;64.63;45.60;;;9.40;99.90;;;;;;6277407;22;20003;-74
2023/12/30 07:16:15;;;;;;;64.70;45.80;;;9.40;99.90;;;;;;6277471;22;19999;-76
2023/12/30 07:18:41;;;;;;;62.90;44.93;;;9.40;99.90;;;;;;6277270;22;20053;-76
2023/12/30 07:21:07;;;;;;;61.20;42.73;;;9.40;99.90;;;;;;6277135;22;20004;-76
2023/12/30 07:23:33;;;;;;;62.47;43.87;;;9.40;99.90;;;;;;6277979;22;20066;-76
2023/12/30 07:25:58;;;;;;;61.33;43.83;;;9.40;99.90;;;;;;6277365;22;20380;-76
2023/12/30 07:28:24;;;;;;;73.60;51.77;;;9.50;99.90;;;;;;6277622;22;20046;-77
2023/12/30 07:30:50;;;;;;;73.13;53.07;;;9.50;99.90;;;;;;6250380;22;20020;-75
2023/12/30 07:33:16;;;;;;;81.20;57.37;;;9.50;99.90;;;;;;6277861;22;20393;-70
2023/12/30 07:35:42;;;;;;;80.90;57.60;;;9.50;99.90;;;;;;6278177;22;20028;-69
2023/12/30 07:38:08;;;;;;;79.83;57.87;;;9.50;99.90;;;;;;6278074;22;20335;-69
2023/12/30 07:40:34;;;;;;;83.00;59.40;;;9.50;99.90;;;;;;6277804;22;20004;-70
2023/12/30 07:43:10;;;;;;;84.13;61.33;;;9.50;99.90;;;;;;6277750;22;20011;-69
2023/12/30 07:52:46;;;;;;;80.70;57.40;;;9.60;99.90;;;;;;6074043;23;20046;-69
2023/12/30 08:01:51;;;;;;;82.60;57.37;;;9.60;99.90;;;;;;6036859;23;20529;-68
2023/12/30 08:04:17;;;;;;;85.57;60.87;;;9.60;99.90;;;;;;6095598;23;20006;-68
2023/12/30 08:06:49;;;;;;;86.73;60.67;;;9.60;99.90;;;;;;6123472;23;20490;-68
2023/12/30 08:09:18;;;;;;;86.97;59.78;;;9.60;99.90;;;;;;6179896;22;20034;-68
2023/12/30 08:11:45;;;;;;;91.17;63.23;;;9.60;99.90;;;;;;6273910;22;20015;-70
2023/12/30 08:14:12;;;;;;;87.63;61.22;;;9.60;99.90;;;;;;6246596;22;20342;-69
2023/12/30 08:16:37;;;;;;;89.00;62.50;;;9.60;99.90;;;;;;6274635;22;20079;-69
2023/12/30 08:19:03;;;;;;;103.43;64.93;;;9.60;99.90;;;;;;6277258;22;20477;-69
2023/12/30 08:21:32;;;;;;;119.60;72.53;;;9.60;99.90;;;;;;6277362;22;20353;-69
2023/12/30 08:24:00;;;;;;;87.97;60.27;;;9.60;99.90;;;;;;6276983;22;20428;-69
2023/12/30 08:26:27;;;;;;;96.33;63.23;;;9.60;99.90;;;;;;6276380;22;20090;-68
2023/12/30 08:28:54;;;;;;;88.30;59.20;;;9.70;99.90;;;;;;6277013;22;20122;-69
2023/12/30 08:31:21;;;;;;;82.60;54.85;;;9.70;99.90;;;;;;6276902;22;20027;-69
2023/12/30 08:33:48;;;;;;;87.93;59.33;;;9.70;99.90;;;;;;6276480;22;20449;-68
2023/12/30 08:36:14;;;;;;;83.38;59.08;;;9.70;99.90;;;;;;6276969;22;20007;-68
2023/12/30 08:38:40;;;;;;;87.50;60.83;;;9.70;99.90;;;;;;6274982;22;20466;-69
2023/12/30 08:41:10;;;;;;;88.70;63.03;;;9.70;99.90;;;;;;6273891;22;20027;-68
2023/12/30 08:43:36;;;;;;;92.27;62.53;;;9.80;99.90;;;;;;6275049;22;20000;-69
2023/12/30 08:46:02;;;;;;;95.05;63.42;;;9.80;99.90;;;;;;6276959;22;20004;-68
2023/12/30 08:48:28;;;;;;;95.87;65.67;;;9.80;99.90;;;;;;6277160;22;20038;-69
2023/12/30 08:50:54;;;;;;;95.43;65.57;;;9.80;99.90;;;;;;6276751;22;20393;-69
2023/12/30 08:53:24;;;;;;;93.53;63.93;;;9.90;99.90;;;;;;6276360;22;20020;-68
2023/12/30 08:55:52;;;;;;;93.75;64.53;;;9.90;99.90;;;;;;6276632;22;19992;-69
2023/12/30 08:58:18;;;;;;;99.90;64.57;;;9.90;99.90;;;;;;6276312;22;20446;-69
2023/12/30 09:00:44;;;;;;;90.43;60.67;;;9.90;99.90;;;;;;6276623;22;20070;-69
2023/12/30 09:03:10;;;;;;;90.20;60.37;;;9.90;99.90;;;;;;6276319;22;20426;-69
2023/12/30 09:05:37;;;;;;;87.10;57.97;;;10.00;99.90;;;;;;6277080;22;20533;-70
2023/12/30 09:08:04;;;;;;;82.93;57.13;;;9.90;99.90;;;;;;6277137;22;20425;-69
2023/12/30 09:10:33;;;;;;;81.00;56.53;;;10.00;99.90;;;;;;6277083;22;20346;-68
2023/12/30 09:12:59;;;;;;;83.72;56.03;;;10.00;99.90;;;;;;6276928;22;20087;-68
2023/12/30 09:15:27;;;;;;;88.07;58.78;;;10.00;99.90;;;;;;6276761;22;20027;-68
2023/12/30 09:28:42;;;;;;;56.33;40.20;;;10.10;99.90;;;;;;6169188;23;20112;-68
2023/12/30 09:48:57;;;;;;;53.53;34.80;;;10.10;99.90;;;;;;5869312;24;20512;-72
2023/12/30 09:51:26;;;;;;;48.63;33.17;;;10.10;99.90;;;;;;5894643;24;20429;-74
2023/12/30 09:53:52;;;;;;;46.90;33.47;;;10.10;99.90;;;;;;6098665;23;20006;-69
2023/12/30 09:56:19;;;;;;;47.40;32.97;;;10.10;99.90;;;;;;6242852;22;20018;-73
2023/12/30 09:58:46;;;;;;;50.47;32.80;;;10.10;99.90;;;;;;6275971;22;20003;-68
2023/12/30 10:01:12;;;;;;;51.40;32.97;;;10.20;99.90;;;;;;6275780;22;20376;-69
2023/12/30 10:03:38;;;;;;;46.08;31.58;;;10.20;99.90;;;;;;6276010;22;20031;-69
2023/12/30 10:06:04;;;;;;;43.55;30.35;;;10.20;99.90;;;;;;6276195;22;20058;-70
2023/12/30 10:08:30;;;;;;;42.65;29.88;;;10.20;99.90;;;;;;6249093;22;20007;-68
2023/12/30 10:10:57;;;;;;;41.67;29.90;;;10.20;99.90;;;;;;6276177;22;20360;-68
2023/12/30 10:13:26;;;;;;;36.78;27.88;;;10.20;99.90;;;;;;6276539;22;19999;-68
2023/12/30 10:15:54;;;;;;;43.28;27.77;;;10.20;99.90;;;;;;6276177;22;20069;-69
2023/12/30 10:18:20;;;;;;;44.00;28.13;;;10.30;99.90;;;;;;6276296;22;20433;-68
2023/12/30 10:20:47;;;;;;;41.88;27.52;;;10.30;99.90;;;;;;6276252;22;20004;-68
2023/12/30 10:23:14;;;;;;;37.95;27.17;;;10.30;99.90;;;;;;6249143;22;20003;-68
2023/12/30 10:25:41;;;;;;;37.53;27.08;;;10.30;99.90;;;;;;6276611;22;20003;-68
2023/12/30 10:28:07;;;;;;;42.92;27.58;;;10.30;99.90;;;;;;6275911;22;20015;-68
2023/12/30 10:30:32;;;;;;;38.67;26.67;;;10.30;99.90;;;;;;6276042;22;20008;-68
2023/12/30 10:33:09;;;;;;;39.42;27.70;;;10.30;99.90;;;;;;6276063;22;20074;-68
2023/12/30 10:35:37;;;;;;;37.42;26.75;;;10.30;99.90;;;;;;6276137;22;20010;-68
2023/12/30 10:38:04;;;;;;;40.53;27.40;;;10.40;99.90;;;;;;6275969;22;20000;-68
2023/12/30 10:40:30;;;;;;;49.15;28.05;;;10.30;99.90;;;;;;6276212;22;20030;-68
2023/12/30 10:42:57;;;;;;;38.13;26.88;;;10.30;99.90;;;;;;6276103;22;20490;-68
2023/12/30 10:45:24;;;;;;;38.08;28.40;;;10.30;99.90;;;;;;6275659;22;20491;-68
2023/12/30 10:47:50;;;;;;;41.63;27.60;;;10.40;99.90;;;;;;6276090;22;20513;-68
2023/12/30 10:50:16;;;;;;;41.80;27.95;;;10.40;99.90;;;;;;6276625;22;20011;-68
2023/12/30 10:52:52;;;;;;;36.30;27.15;;;10.40;99.90;;;;;;6276295;22;20078;-68
2023/12/30 10:55:19;;;;;;;43.20;29.40;;;10.40;99.90;;;;;;6276693;22;20072;-68
2023/12/30 10:57:51;;;;;;;37.78;28.40;;;10.40;99.90;;;;;;6276240;22;20007;-68
2023/12/30 11:00:22;;;;;;;37.17;28.25;;;10.40;99.90;;;;;;6276598;22;20338;-68
2023/12/30 11:02:57;;;;;;;40.08;27.10;;;10.40;99.90;;;;;;6276499;22;20057;-68
2023/12/30 11:16:32;;;;;;;33.53;24.40;;;10.40;99.90;;;;;;6123109;23;20010;-68
2023/12/30 11:22:27;;;;;;;34.83;22.10;;;10.50;99.90;;;;;;6182639;23;20059;-69
2023/12/30 11:24:54;;;;;;;34.25;23.08;;;10.50;99.90;;;;;;6215355;22;20375;-68
2023/12/30 11:27:22;;;;;;;32.42;22.90;;;10.50;99.90;;;;;;6276512;22;20388;-68
2023/12/30 11:29:53;;;;;;;31.05;23.40;;;10.50;99.90;;;;;;6275889;22;20346;-68
2023/12/30 11:32:19;;;;;;;30.63;22.02;;;10.50;99.90;;;;;;6275865;22;20008;-68
2023/12/30 11:34:47;;;;;;;37.92;22.30;;;10.50;99.90;;;;;;6275714;22;20003;-68
2023/12/30 11:37:15;;;;;;;32.63;22.88;;;10.60;99.90;;;;;;6275476;22;20000;-68
2023/12/30 11:39:42;;;;;;;30.63;22.60;;;10.60;99.90;;;;;;6275379;22;20010;-69
2023/12/30 11:42:08;;;;;;;31.70;22.17;;;10.60;99.90;;;;;;6275652;22;20004;-70
2023/12/30 11:44:35;;;;;;;30.67;22.55;;;10.60;99.90;;;;;;6276575;22;20006;-69
2023/12/30 11:47:00;;;;;;;35.15;24.27;;;10.60;99.90;;;;;;6277787;22;20026;-68
2023/12/30 11:49:26;;;;;;;28.25;22.35;;;10.60;99.90;;;;;;6277654;22;20000;-69
2023/12/30 11:52:02;;;;;;;35.22;22.85;;;10.60;99.90;;;;;;6277337;22;20145;-68
2023/12/30 11:54:28;;;;;;;32.45;23.30;;;10.60;99.90;;;;;;6277444;22;20334;-68
2023/12/30 11:56:53;;;;;;;34.38;24.05;;;10.70;99.90;;;;;;6276969;22;20011;-69
2023/12/30 11:59:19;;;;;;;31.08;23.38;;;10.70;99.90;;;;;;6274906;22;19992;-74
2023/12/30 12:01:46;;;;;;;34.60;25.35;;;10.70;99.90;;;;;;6277222;22;20023;-76
2023/12/30 12:04:13;;;;;;;37.67;24.15;;;10.70;99.90;;;;;;6276661;22;20022;-74
2023/12/30 12:06:40;;;;;;;34.13;25.75;;;10.70;99.90;;;;;;6276639;22;20065;-75
2023/12/30 12:09:07;;;;;;;37.35;25.58;;;10.70;99.90;;;;;;6249678;22;20035;-74
2023/12/30 12:11:33;;;;;;;34.53;25.90;;;10.70;99.90;;;;;;6277317;22;20012;-75
2023/12/30 12:13:59;;;;;;;42.92;25.55;;;10.70;99.90;;;;;;6277305;22;20320;-75
2023/12/30 12:16:27;;;;;;;36.20;26.05;;;10.80;99.90;;;;;;6277087;22;20000;-74
2023/12/30 12:18:54;;;;;;;40.72;25.52;;;10.80;99.90;;;;;;6277257;22;19996;-69
2023/12/30 12:21:20;;;;;;;37.83;25.67;;;10.80;99.90;;;;;;6277666;22;20299;-69
2023/12/30 12:23:47;;;;;;;34.78;26.02;;;10.80;99.90;;;;;;6250239;22;20000;-68
2023/12/30 12:26:13;;;;;;;40.75;26.35;;;10.80;99.90;;;;;;6250832;22;20008;-68
2023/12/30 12:28:39;;;;;;;38.42;27.30;;;10.80;99.90;;;;;;6250977;22;20472;-68
2023/12/30 12:55:43;;;;;;;43.20;30.27;;;10.80;99.90;;;;;;5847242;24;20025;-68
2023/12/30 12:58:09;;;;;;;62.65;45.83;;;10.80;99.90;;;;;;5862061;24;20013;-68
2023/12/30 13:00:37;;;;;;;70.13;52.25;;;10.80;99.90;;;;;;5991484;23;20331;-67
2023/12/30 13:03:03;;;;;;;76.57;53.38;;;10.80;99.90;;;;;;6193795;22;20011;-68
2023/12/30 13:05:29;;;;;;;81.15;55.83;;;10.80;99.90;;;;;;6276858;22;19996;-68
2023/12/30 13:07:56;;;;;;;79.65;53.85;;;10.80;99.90;;;;;;6249650;22;19996;-68
2023/12/30 13:10:42;;;;;;;81.25;56.53;;;10.80;99.90;;;;;;6276876;22;20011;-69
2023/12/30 13:13:08;;;;;;;85.13;58.60;;;10.90;99.90;;;;;;6276712;22;20048;-68
2023/12/30 13:15:33;;;;;;;82.78;57.03;;;10.90;99.90;;;;;;6276638;22;20000;-69
2023/12/30 13:17:59;;;;;;;82.93;56.88;;;10.90;99.90;;;;;;6276675;22;20007;-69
2023/12/30 13:20:27;;;;;;;85.72;58.58;;;10.90;99.90;;;;;;6276626;22;19999;-68
2023/12/30 13:22:56;;;;;;;81.00;55.28;;;10.90;99.90;;;;;;6276381;22;20410;-68
2023/12/30 13:25:21;;;;;;;78.93;56.00;;;10.90;99.90;;;;;;6276553;22;20333;-68
2023/12/30 13:27:47;;;;;;;79.07;56.67;;;10.90;99.90;;;;;;6247245;22;20004;-68
2023/12/30 13:30:13;;;;;;;77.50;53.08;;;10.90;99.90;;;;;;6273191;22;20090;-67
2023/12/30 13:32:41;;;;;;;76.07;53.13;;;10.90;99.90;;;;;;6273132;22;20004;-69
2023/12/30 13:35:07;;;;;;;77.53;53.65;;;10.90;99.90;;;;;;6275215;22;20065;-67
2023/12/30 13:37:38;;;;;;;79.28;52.88;;;10.90;99.90;;;;;;6276513;22;19996;-69
2023/12/30 13:40:10;;;;;;;78.72;54.00;;;10.90;99.90;;;;;;6249116;22;20015;-68
2023/12/30 13:42:36;;;;;;;;;;;10.90;99.90;;;;;;6276218;22;20501;-67
2023/12/30 13:45:03;;;;;;;78.22;51.90;;;10.90;99.90;;;;;;6276064;22;19930;-67
2023/12/30 13:48:21;;;;;;;79.93;54.10;;;11.00;99.90;;;;;;6273558;22;20394;-67
2023/12/30 13:50:31;;;;;;;73.82;51.92;;;10.90;99.90;;;;;;6272398;22;20015;-68
2023/12/30 13:53:01;;;;;;;72.63;51.67;;;11.00;99.90;;;;;;6275805;22;20007;-68
2023/12/30 13:55:34;;;;;;;71.35;51.17;;;11.00;99.90;;;;;;6276638;22;20007;-68
2023/12/30 13:58:02;;;;;;;75.30;50.75;;;11.00;99.90;;;;;;6276684;22;20334;-67
2023/12/30 14:00:28;;;;;;;81.10;53.25;;;11.00;99.90;;;;;;6276808;22;20011;-68
2023/12/30 14:02:54;;;;;;;71.47;50.10;;;11.00;99.90;;;;;;6276794;22;20083;-68
2023/12/30 14:05:29;;;;;;;73.95;51.95;;;11.00;99.90;;;;;;6276946;22;20330;-68
2023/12/30 14:15:52;;;;;;;67.63;49.00;;;11.00;99.90;;;;;;6033246;23;20046;-67
2023/12/30 14:26:31;;;;;;;66.43;46.93;;;11.00;99.90;;;;;;5757434;24;20069;-68
2023/12/30 14:32:29;;;;;;;67.07;46.55;;;11.00;99.90;;;;;;5763750;24;20093;-68
2023/12/30 14:34:56;;;;;;;77.93;50.60;;;11.00;99.90;;;;;;5798311;24;20373;-67
2023/12/30 14:37:22;;;;;;;68.25;47.80;;;11.00;99.90;;;;;;6069535;22;20333;-67
2023/12/30 14:39:47;;;;;;;67.97;47.65;;;11.00;99.90;;;;;;6276256;22;20338;-67
2023/12/30 14:42:15;;;;;;;72.97;50.17;;;11.00;99.90;;;;;;6276399;22;20004;-67
2023/12/30 14:44:40;;;;;;;70.65;50.22;;;11.00;99.90;;;;;;6275653;22;20035;-69
2023/12/30 14:47:06;;;;;;;70.25;49.95;;;11.00;99.90;;;;;;6276219;22;20061;-68
2023/12/30 14:49:32;;;;;;;66.80;48.25;;;11.00;99.90;;;;;;6275304;22;20524;-67
2023/12/30 14:51:58;;;;;;;69.22;49.88;;;11.00;99.90;;;;;;6276038;22;20012;-69
2023/12/30 14:54:24;;;;;;;67.28;48.65;;;11.00;99.90;;;;;;6276106;22;19999;-68
2023/12/30 14:56:50;;;;;;;69.82;50.92;;;11.00;99.90;;;;;;6275499;22;20057;-68
2023/12/30 14:59:16;;;;;;;68.10;49.60;;;11.00;99.90;;;;;;6275985;22;20066;-67
2023/12/30 15:01:43;;;;;;;70.00;47.78;;;11.00;99.90;;;;;;6275916;22;20422;-68
2023/12/30 15:04:10;;;;;;;75.45;49.28;;;11.00;99.90;;;;;;6275539;22;20432;-69
2023/12/30 15:06:35;;;;;;;68.13;48.08;;;11.00;99.90;;;;;;6248740;22;20389;-68
2023/12/30 15:09:04;;;;;;;70.47;47.88;;;11.00;99.90;;;;;;6275975;22;20026;-68
2023/12/30 15:11:30;;;;;;;69.10;47.30;;;11.00;99.90;;;;;;6275546;22;20495;-73
2023/12/30 15:13:56;;;;;;;64.88;46.83;;;11.00;99.90;;;;;;6275708;22;19996;-75
2023/12/30 15:16:22;;;;;;;67.90;47.28;;;11.00;99.90;;;;;;6273997;22;20015;-74
2023/12/30 15:18:47;;;;;;;65.93;46.95;;;10.90;99.90;;;;;;6272742;22;20011;-75
2023/12/30 15:21:13;;;;;;;65.53;47.47;;;11.00;99.90;;;;;;6275556;22;20050;-75
2023/12/30 15:23:40;;;;;;;63.58;45.60;;;11.00;99.90;;;;;;6277935;22;20046;-75
2023/12/30 15:26:05;;;;;;;66.63;46.45;;;11.00;99.90;;;;;;6278179;22;20004;-75
2023/12/30 15:28:31;;;;;;;66.90;47.17;;;10.90;99.90;;;;;;6277568;22;20004;-72
2023/12/30 15:30:57;;;;;;;67.90;46.88;;;11.00;99.90;;;;;;6218802;22;20028;-68
2023/12/30 15:33:26;;;;;;;73.13;48.50;;;10.90;99.90;;;;;;6254844;22;20451;-68
2023/12/30 15:35:52;;;;;;;66.95;47.35;;;10.90;99.90;;;;;;6278279;22;20031;-68
2023/12/30 15:38:18;;;;;;;55.40;40.22;;;10.90;99.90;;;;;;6277759;22;20103;-69
2023/12/30 15:40:44;;;;;;;55.47;38.22;;;10.90;99.90;;;;;;6277872;22;20047;-68
2023/12/30 15:47:54;;;;;;;;;;;;;;;;;;;;;